createdAt,value
2022-10-17T00:00:34.718Z,62.19
2022-10-17T00:03:01.798Z,61.49
2022-10-17T00:05:28.824Z,62.34
2022-10-17T00:07:55.875Z,63.92
2022-10-17T00:10:22.594Z,63.93
2022-10-17T00:12:51.540Z,63.59
2022-10-17T00:15:20.171Z,63.97
2022-10-17T00:17:47.134Z,64.39
2022-10-17T00:20:13.793Z,64.67
2022-10-17T00:22:40.887Z,64.07
2022-10-17T00:25:08.229Z,62.94
2022-10-17T00:27:38.255Z,63.81
2022-10-17T00:30:06.795Z,63.60
2022-10-17T00:32:33.507Z,64.16
2022-10-17T00:35:00.267Z,63.86
2022-10-17T00:37:27.013Z,63.91
2022-10-17T00:39:54.380Z,63.03
2022-10-17T00:42:21.081Z,63.03
2022-10-17T00:44:48.019Z,62.83
2022-10-17T00:47:19.887Z,63.86
2022-10-17T00:49:47.898Z,64.77
2022-10-17T00:52:19.596Z,64.42
2022-10-17T00:54:49.594Z,64.10
2022-10-17T00:57:17.570Z,62.69
2022-10-17T00:59:50.482Z,63.12
2022-10-17T01:02:19.508Z,63.77
2022-10-17T01:04:50.037Z,63.24
2022-10-17T01:07:16.939Z,63.17
2022-10-17T01:09:45.655Z,63.30
2022-10-17T01:12:27.455Z,63.66
2022-10-17T01:15:31.087Z,64.61
2022-10-17T01:18:14.811Z,66.26
2022-10-17T01:20:47.331Z,65.31
2022-10-17T01:23:43.290Z,64.85
2022-10-17T01:26:30.923Z,65.59
2022-10-17T01:29:15.210Z,65.38
2022-10-17T01:31:55.769Z,64.98
2022-10-17T01:34:32.949Z,64.69
2022-10-17T01:37:16.154Z,64.99
2022-10-17T01:39:48.171Z,63.63
2022-10-17T01:42:33.510Z,64.03
2022-10-17T01:45:25.591Z,65.34
2022-10-17T01:47:54.401Z,64.08
2022-10-17T01:50:28.002Z,63.51
2022-10-17T01:53:02.083Z,64.83
2022-10-17T01:55:42.408Z,64.60
2022-10-17T01:58:17.499Z,64.10
2022-10-17T02:00:45.478Z,63.87
2022-10-17T02:03:17.687Z,64.94
2022-10-17T02:05:44.232Z,65.39
2022-10-17T02:08:11.530Z,64.09
2022-10-17T02:11:03.001Z,63.85
2022-10-17T02:14:07.163Z,64.65
2022-10-17T02:17:03.589Z,65.00
2022-10-17T02:19:39.083Z,65.16
2022-10-17T02:22:16.878Z,64.82
2022-10-17T02:25:01.863Z,64.65
2022-10-17T02:27:34.608Z,65.02
2022-10-17T02:30:24.019Z,65.60
2022-10-17T02:33:00.004Z,65.99
2022-10-17T02:35:31.522Z,67.38
2022-10-17T02:37:59.916Z,67.34
2022-10-17T02:40:29.719Z,66.63
2022-10-17T02:42:58.550Z,65.15
2022-10-17T02:45:28.064Z,65.91
2022-10-17T02:48:03.554Z,65.83
2022-10-17T02:51:00.824Z,64.83
2022-10-17T02:53:34.914Z,64.90
2022-10-17T02:56:08.530Z,65.62
2022-10-17T02:58:37.584Z,65.33
2022-10-17T03:01:04.921Z,65.77
2022-10-17T03:03:32.733Z,65.25
2022-10-17T03:05:59.450Z,65.65
2022-10-17T03:08:26.801Z,65.52
2022-10-17T03:10:53.591Z,65.96
2022-10-17T03:13:20.919Z,66.48
2022-10-17T03:15:48.024Z,65.73
2022-10-17T03:18:14.761Z,66.13
2022-10-17T03:20:41.178Z,66.18
2022-10-17T03:23:07.886Z,66.42
2022-10-17T03:25:35.866Z,67.55
2022-10-17T03:28:02.425Z,66.28
2022-10-17T03:30:29.466Z,67.14
2022-10-17T03:32:58.221Z,65.29
2022-10-17T03:35:25.661Z,65.16
2022-10-17T03:37:52.595Z,64.52
2022-10-17T03:40:19.074Z,63.77
2022-10-17T03:42:45.815Z,65.21
2022-10-17T03:45:12.594Z,64.21
2022-10-17T03:47:39.415Z,63.93
2022-10-17T03:50:06.407Z,64.58
2022-10-17T03:52:33.274Z,65.55
2022-10-17T03:55:03.528Z,64.55
2022-10-17T03:57:30.407Z,64.90
2022-10-17T03:59:59.349Z,63.04
2022-10-17T04:02:26.052Z,63.25
2022-10-17T04:04:54.057Z,63.41
2022-10-17T04:07:20.635Z,63.67
2022-10-17T04:09:48.440Z,63.44
2022-10-17T04:12:14.949Z,63.48
2022-10-17T04:14:41.413Z,62.18
2022-10-17T04:17:08.099Z,63.80
2022-10-17T04:19:35.211Z,63.26
2022-10-17T04:22:03.439Z,61.53
2022-10-17T04:24:30.522Z,61.26
2022-10-17T04:26:57.771Z,62.23
2022-10-17T04:29:25.909Z,61.13
2022-10-17T04:31:52.732Z,60.28
2022-10-17T04:34:19.704Z,60.36
2022-10-17T04:36:47.236Z,60.61
2022-10-17T04:41:42.362Z,60.66
2022-10-17T04:44:10.678Z,60.76
2022-10-17T04:46:37.347Z,61.13
2022-10-17T04:49:03.959Z,60.89
2022-10-17T04:51:30.908Z,60.38
2022-10-17T04:53:58.476Z,61.13
2022-10-17T04:56:25.712Z,61.63
2022-10-17T04:58:52.643Z,61.57
2022-10-17T05:01:22.580Z,61.48
2022-10-17T05:04:02.503Z,61.61
2022-10-17T05:06:29.267Z,61.86
2022-10-17T05:08:56.089Z,63.09
2022-10-17T05:11:25.748Z,63.02
2022-10-17T05:13:54.721Z,62.96
2022-10-17T05:16:22.103Z,62.56
2022-10-17T05:18:53.831Z,62.39
2022-10-17T05:21:21.732Z,62.53
2022-10-17T05:23:48.393Z,64.33
2022-10-17T05:26:15.442Z,64.50
2022-10-17T05:28:42.403Z,63.69
2022-10-17T05:31:11.034Z,62.52
2022-10-17T05:33:39.055Z,63.04
2022-10-17T05:36:06.448Z,61.99
2022-10-17T05:38:33.228Z,62.37
2022-10-17T05:41:00.931Z,62.41
2022-10-17T05:43:28.224Z,63.18
2022-10-17T05:45:55.296Z,62.32
2022-10-17T05:48:23.035Z,62.72
2022-10-17T05:50:50.240Z,63.29
2022-10-17T05:53:17.475Z,63.08
2022-10-17T05:55:45.366Z,62.91
2022-10-17T05:58:21.731Z,62.12
2022-10-17T06:00:49.156Z,61.98
2022-10-17T06:03:15.719Z,62.18
2022-10-17T06:05:42.419Z,62.30
2022-10-17T06:08:09.040Z,64.09
2022-10-17T06:10:35.854Z,64.25
2022-10-17T06:13:02.569Z,63.12
2022-10-17T06:15:29.726Z,62.37
2022-10-17T06:17:56.842Z,61.93
2022-10-17T06:20:23.596Z,62.29
2022-10-17T06:22:51.621Z,63.01
2022-10-17T06:25:18.165Z,62.31
2022-10-17T06:27:44.933Z,62.41
2022-10-17T06:30:12.181Z,62.08
2022-10-17T06:32:38.935Z,63.01
2022-10-17T06:35:06.046Z,63.10
2022-10-17T06:37:36.450Z,63.66
2022-10-17T06:40:04.302Z,62.96
2022-10-17T06:42:31.008Z,63.36
2022-10-17T06:45:00.440Z,62.96
2022-10-17T06:47:27.367Z,62.17
2022-10-17T06:49:54.116Z,60.81
2022-10-17T06:52:21.642Z,64.32
2022-10-17T06:54:48.584Z,62.43
2022-10-17T06:57:16.102Z,62.41
2022-10-17T06:59:43.539Z,62.39
2022-10-17T07:02:10.962Z,62.88
2022-10-17T07:04:38.224Z,62.42
2022-10-17T07:07:06.015Z,63.76
2022-10-17T07:09:33.078Z,61.90
2022-10-17T07:12:00.574Z,64.17
2022-10-17T07:14:31.992Z,64.05
2022-10-17T07:16:59.864Z,66.50
2022-10-17T07:19:29.636Z,66.17
2022-10-17T07:21:56.807Z,63.31
2022-10-17T07:24:24.579Z,63.90
2022-10-17T07:26:51.198Z,64.30
2022-10-17T07:29:17.611Z,63.68
2022-10-17T07:31:45.608Z,64.34
2022-10-17T07:34:12.098Z,67.12
2022-10-17T07:36:38.795Z,64.05
2022-10-17T07:39:05.872Z,64.99
2022-10-17T07:41:32.447Z,64.54
2022-10-17T07:43:59.158Z,64.98
2022-10-17T07:46:25.730Z,64.14
2022-10-17T07:48:52.292Z,65.18
2022-10-17T07:51:20.282Z,64.43
2022-10-17T07:53:48.818Z,61.79
2022-10-17T07:56:17.638Z,65.29
2022-10-17T07:58:44.145Z,66.06
2022-10-17T08:01:15.517Z,62.03
2022-10-17T08:03:44.637Z,62.18
2022-10-17T08:06:12.176Z,63.52
2022-10-17T08:08:39.183Z,66.03
2022-10-17T08:11:08.138Z,64.77
2022-10-17T08:13:35.174Z,65.02
2022-10-17T08:16:03.644Z,62.16
2022-10-17T08:18:30.532Z,61.76
2022-10-17T08:21:00.779Z,62.69
2022-10-17T08:23:30.009Z,62.65
2022-10-17T08:25:59.832Z,60.81
2022-10-17T08:28:26.565Z,62.99
2022-10-17T08:30:52.970Z,63.67
2022-10-17T08:33:19.389Z,62.21
2022-10-17T08:35:46.266Z,60.17
2022-10-17T08:38:13.513Z,60.38
2022-10-17T08:40:42.826Z,61.55
2022-10-17T08:43:35.377Z,59.54
2022-10-17T08:46:05.319Z,60.37
2022-10-17T08:48:46.723Z,61.81
2022-10-17T08:51:24.726Z,61.33
2022-10-17T08:54:22.289Z,60.62
2022-10-17T08:56:51.247Z,60.95
2022-10-17T08:59:28.469Z,57.88
2022-10-17T09:02:48.094Z,58.11
2022-10-17T09:05:33.394Z,59.28
2022-10-17T09:08:17.545Z,62.07
2022-10-17T09:10:57.021Z,59.56
2022-10-17T09:14:02.268Z,59.27
2022-10-17T09:16:43.908Z,56.30
2022-10-17T09:19:31.572Z,57.46
2022-10-17T09:22:05.853Z,58.64
2022-10-17T09:24:48.338Z,59.61
2022-10-17T09:27:24.095Z,60.45
2022-10-17T09:29:57.616Z,61.46
2022-10-17T09:32:25.571Z,59.25
2022-10-17T09:34:53.946Z,60.64
2022-10-17T09:37:25.565Z,59.43
2022-10-17T09:39:52.481Z,63.06
2022-10-17T09:42:21.761Z,61.39
2022-10-17T09:45:19.613Z,56.80
2022-10-17T09:48:02.062Z,58.02
2022-10-17T09:50:34.352Z,59.07
2022-10-17T09:53:10.061Z,59.29
2022-10-17T09:55:43.276Z,57.70
2022-10-17T09:58:10.883Z,55.77
2022-10-17T10:00:44.208Z,57.22
2022-10-17T10:03:25.251Z,56.48
2022-10-17T10:06:01.327Z,58.62
2022-10-17T10:08:36.603Z,55.97
2022-10-17T10:11:06.585Z,59.15
2022-10-17T10:13:35.368Z,56.22
2022-10-17T10:16:14.061Z,55.60
2022-10-17T10:18:40.529Z,56.63
2022-10-17T10:21:16.547Z,56.42
2022-10-17T10:23:45.477Z,55.31
2022-10-17T10:26:22.461Z,54.63
2022-10-17T10:29:01.843Z,57.41
2022-10-17T10:31:43.007Z,56.66
2022-10-17T10:34:22.323Z,60.54
2022-10-17T10:37:01.107Z,58.10
2022-10-17T10:39:47.834Z,59.47
2022-10-17T10:42:25.512Z,57.75
2022-10-17T10:44:54.152Z,56.31
2022-10-17T10:47:22.626Z,55.44
2022-10-17T10:49:52.755Z,55.00
2022-10-17T10:52:41.754Z,54.80
2022-10-17T10:55:32.327Z,56.75
2022-10-17T10:58:03.941Z,57.31
2022-10-17T11:00:34.869Z,55.71
2022-10-17T11:03:16.186Z,55.02
2022-10-17T11:05:58.017Z,57.34
2022-10-17T11:09:11.108Z,58.30
2022-10-17T11:11:45.607Z,56.10
2022-10-17T11:14:39.013Z,55.01
2022-10-17T11:17:24.109Z,57.30
2022-10-17T11:20:10.538Z,56.78
2022-10-17T11:23:13.974Z,56.02
2022-10-17T11:25:41.379Z,56.65
2022-10-17T11:28:18.034Z,57.92
2022-10-17T11:31:04.539Z,57.19
2022-10-17T11:33:50.785Z,55.37
2022-10-17T11:36:22.735Z,56.73
2022-10-17T11:39:00.113Z,56.16
2022-10-17T11:41:43.717Z,57.00
2022-10-17T11:44:35.132Z,56.34
2022-10-17T11:47:29.792Z,56.00
2022-10-17T11:53:03.840Z,55.64
2022-10-17T11:55:34.294Z,56.47
2022-10-17T11:58:39.072Z,55.26
2022-10-17T12:02:03.116Z,56.41
2022-10-17T12:04:49.669Z,56.72
2022-10-17T12:07:33.656Z,55.80
2022-10-17T12:10:20.776Z,54.79
2022-10-17T12:12:49.521Z,55.37
2022-10-17T12:15:25.349Z,55.60
2022-10-17T12:18:03.389Z,56.09
2022-10-17T12:20:31.253Z,56.39
2022-10-17T12:23:13.341Z,56.22
2022-10-17T12:25:58.256Z,58.13
2022-10-17T12:28:45.744Z,57.68
2022-10-17T12:31:23.164Z,60.76
2022-10-17T12:33:58.271Z,59.70
2022-10-17T12:36:28.133Z,64.18
2022-10-17T12:39:11.750Z,67.42
2022-10-17T12:41:38.692Z,69.03
2022-10-17T12:44:14.741Z,68.65
2022-10-17T12:47:10.933Z,66.06
2022-10-17T12:49:55.770Z,64.54
2022-10-17T12:52:32.762Z,65.09
2022-10-17T12:55:13.130Z,64.74
2022-10-17T12:57:49.828Z,64.74
2022-10-17T13:00:35.947Z,65.89
2022-10-17T13:03:31.248Z,64.19
2022-10-17T13:06:01.364Z,65.33
2022-10-17T13:08:33.904Z,64.93
2022-10-17T13:11:01.560Z,65.29
2022-10-17T13:13:41.909Z,64.65
2022-10-17T13:16:08.948Z,69.11
2022-10-17T13:18:36.014Z,67.52
2022-10-17T13:21:15.864Z,65.44
2022-10-17T13:23:42.508Z,66.32
2022-10-17T13:26:23.909Z,65.99
2022-10-17T13:29:07.322Z,63.97
2022-10-17T13:31:37.228Z,63.99
2022-10-17T13:34:07.124Z,64.62
2022-10-17T13:36:35.786Z,69.90
2022-10-17T13:39:13.693Z,74.90
2022-10-17T13:41:42.021Z,70.64
2022-10-17T13:44:19.481Z,70.99
2022-10-17T13:46:46.807Z,70.03
2022-10-17T13:49:41.623Z,70.32
2022-10-17T13:52:26.367Z,74.09
2022-10-17T13:54:56.424Z,71.70
2022-10-17T13:57:29.695Z,72.44
2022-10-17T14:00:12.409Z,76.02
2022-10-17T14:02:41.474Z,82.21
2022-10-17T14:05:17.117Z,79.99
2022-10-17T14:10:43.488Z,79.79
2022-10-17T14:13:26.258Z,77.42
2022-10-17T14:15:56.018Z,80.28
2022-10-17T14:18:33.428Z,76.56
2022-10-17T14:23:51.766Z,79.57
2022-10-17T14:26:23.732Z,78.51
2022-10-17T14:29:25.614Z,78.80
2022-10-17T14:32:02.872Z,76.86
2022-10-17T14:34:33.802Z,74.88
2022-10-17T14:37:02.306Z,74.45
2022-10-17T14:39:29.492Z,74.07
2022-10-17T14:41:57.910Z,74.91
2022-10-17T14:44:29.267Z,73.11
2022-10-17T14:47:00.225Z,71.97
2022-10-17T14:49:34.080Z,72.33
2022-10-17T14:52:33.881Z,72.91
2022-10-17T14:55:20.657Z,71.71
2022-10-17T14:57:47.183Z,72.84
2022-10-17T15:00:16.662Z,72.47
2022-10-17T15:02:43.307Z,72.25
2022-10-17T15:05:18.259Z,72.68
2022-10-17T15:07:44.960Z,73.41
2022-10-17T15:10:44.998Z,72.88
2022-10-17T15:13:27.797Z,73.00
2022-10-17T15:15:55.142Z,73.42
2022-10-17T15:18:22.548Z,75.16
2022-10-17T15:20:55.352Z,75.96
2022-10-17T15:23:32.474Z,73.85
2022-10-17T15:25:58.925Z,74.12
2022-10-17T15:28:25.478Z,74.63
2022-10-17T15:30:52.137Z,71.48
2022-10-17T15:33:18.736Z,72.70
2022-10-17T15:36:00.200Z,74.16
2022-10-17T15:38:26.695Z,75.85
2022-10-17T15:40:53.241Z,73.41
2022-10-17T15:43:20.247Z,73.42
2022-10-17T15:45:47.208Z,73.32
2022-10-17T15:48:23.410Z,79.28
2022-10-17T15:50:49.871Z,78.43
2022-10-17T15:53:16.469Z,76.13
2022-10-17T15:55:42.867Z,75.57
2022-10-17T15:58:15.191Z,73.23
2022-10-17T16:00:42.087Z,76.72
2022-10-17T16:03:10.979Z,75.00
2022-10-17T16:05:37.763Z,75.31
2022-10-17T16:08:04.371Z,74.29
2022-10-17T16:10:30.827Z,76.22
2022-10-17T16:12:58.034Z,74.00
2022-10-17T16:15:26.645Z,74.88
2022-10-17T16:17:55.867Z,74.84
2022-10-17T16:20:24.163Z,75.84
2022-10-17T16:22:51.222Z,75.01
2022-10-17T16:25:21.393Z,77.11
2022-10-17T16:27:50.350Z,79.27
2022-10-17T16:30:17.555Z,76.59
2022-10-17T16:32:44.649Z,76.28
2022-10-17T16:35:18.883Z,74.75
2022-10-17T16:37:45.649Z,77.37
2022-10-17T16:40:12.142Z,76.04
2022-10-17T16:42:38.564Z,75.92
2022-10-17T16:45:05.562Z,78.72
2022-10-17T16:47:32.247Z,74.43
2022-10-17T16:49:58.728Z,73.74
2022-10-17T16:52:25.507Z,75.13
2022-10-17T16:54:51.987Z,73.60
2022-10-17T16:57:19.277Z,74.24
2022-10-17T16:59:45.750Z,75.35
2022-10-17T17:02:17.570Z,75.16
2022-10-17T17:04:47.177Z,77.93
2022-10-17T17:07:14.441Z,76.14
2022-10-17T17:09:47.888Z,75.10
2022-10-17T17:12:16.141Z,76.48
2022-10-17T17:14:43.229Z,77.41
2022-10-17T17:17:19.386Z,77.56
2022-10-17T17:19:56.735Z,78.55
2022-10-17T17:22:23.127Z,75.75
2022-10-17T17:27:15.907Z,77.11
2022-10-17T17:29:42.501Z,76.04
2022-10-17T17:32:09.011Z,77.31
2022-10-17T17:34:36.966Z,76.68
2022-10-17T17:37:03.867Z,75.97
2022-10-17T17:39:30.440Z,75.78
2022-10-17T17:41:56.821Z,74.14
2022-10-17T17:44:23.204Z,74.27
2022-10-17T17:46:49.683Z,73.23
2022-10-17T17:49:16.135Z,75.57
2022-10-17T17:51:46.150Z,73.94
2022-10-17T17:54:13.069Z,73.84
2022-10-17T17:56:39.646Z,75.06
2022-10-17T17:59:06.139Z,76.75
2022-10-17T18:01:39.094Z,77.66
2022-10-17T18:04:08.877Z,75.93
2022-10-17T18:06:36.479Z,80.01
2022-10-17T18:09:04.072Z,81.14
2022-10-17T18:11:30.881Z,78.60
2022-10-17T18:14:03.895Z,76.02
2022-10-17T18:16:32.480Z,78.57
2022-10-17T18:19:04.060Z,76.77
2022-10-17T18:21:33.771Z,79.08
2022-10-17T18:24:00.218Z,81.21
2022-10-17T18:26:27.083Z,78.26
2022-10-17T18:28:53.821Z,76.95
2022-10-17T18:31:25.007Z,78.94
2022-10-17T18:33:52.957Z,77.67
2022-10-17T18:36:19.751Z,78.61
2022-10-17T18:38:46.204Z,77.35
2022-10-17T18:41:18.704Z,77.47
2022-10-17T18:43:46.772Z,81.85
2022-10-17T18:46:19.572Z,85.13
2022-10-17T18:48:47.326Z,81.77
2022-10-17T18:51:15.883Z,76.92
2022-10-17T18:53:44.753Z,78.78
2022-10-17T18:56:12.655Z,81.17
2022-10-17T18:58:40.286Z,86.19
2022-10-17T19:01:10.175Z,81.61
2022-10-17T19:03:37.226Z,81.99
2022-10-17T19:06:07.356Z,83.56
2022-10-17T19:08:34.769Z,80.29
2022-10-17T19:11:11.485Z,78.89
2022-10-17T19:13:38.211Z,78.60
2022-10-17T19:16:13.283Z,79.01
2022-10-17T19:18:40.214Z,78.54
2022-10-17T19:21:11.567Z,79.15
2022-10-17T19:23:39.066Z,77.06
2022-10-17T19:26:10.373Z,75.42
2022-10-17T19:28:39.907Z,74.74
2022-10-17T19:31:14.098Z,74.44
2022-10-17T19:33:43.488Z,73.59
2022-10-17T19:36:11.303Z,74.80
2022-10-17T19:38:37.855Z,75.05
2022-10-17T19:41:09.968Z,74.17
2022-10-17T19:43:37.582Z,74.71
2022-10-17T19:46:07.731Z,74.15
2022-10-17T19:48:36.783Z,73.33
2022-10-17T19:51:05.114Z,72.44
2022-10-17T19:53:33.590Z,73.01
2022-10-17T19:56:00.955Z,73.20
2022-10-17T19:58:27.981Z,72.74
2022-10-17T20:00:57.253Z,73.62
2022-10-17T20:03:29.573Z,73.24
2022-10-17T20:05:58.366Z,74.11
2022-10-17T20:10:52.336Z,73.43
2022-10-17T20:13:18.907Z,74.65
2022-10-17T20:15:56.060Z,73.88
2022-10-17T20:18:24.420Z,73.17
2022-10-17T20:20:50.919Z,72.11
2022-10-17T20:23:17.855Z,72.67
2022-10-17T20:25:45.560Z,73.06
2022-10-17T20:28:12.459Z,71.48
2022-10-17T20:30:46.635Z,73.17
2022-10-17T20:33:15.494Z,72.92
2022-10-17T20:35:43.302Z,71.93
2022-10-17T20:38:12.334Z,72.53
2022-10-17T20:40:39.432Z,72.36
2022-10-17T20:43:08.253Z,73.74
2022-10-17T20:45:50.611Z,74.42
2022-10-17T20:48:18.470Z,74.48
2022-10-17T20:50:45.331Z,73.68
2022-10-17T20:56:09.167Z,73.84
2022-10-17T20:58:36.038Z,74.86
2022-10-17T21:01:10.612Z,74.75
2022-10-17T21:03:42.383Z,75.57
2022-10-17T21:06:16.318Z,76.32
2022-10-17T21:08:45.237Z,74.91
2022-10-17T21:11:18.355Z,74.96
2022-10-17T21:13:45.815Z,74.86
2022-10-17T21:16:18.093Z,78.46
2022-10-17T21:18:45.156Z,75.54
2022-10-17T21:21:28.925Z,74.00
2022-10-17T21:23:58.511Z,73.86
2022-10-17T21:26:25.206Z,74.76
2022-10-17T21:28:51.877Z,73.84
2022-10-17T21:31:21.685Z,74.96
2022-10-17T21:33:51.231Z,74.92
2022-10-17T21:36:19.036Z,74.03
2022-10-17T21:38:47.752Z,72.92
2022-10-17T21:41:19.669Z,75.10
2022-10-17T21:43:48.943Z,73.95
2022-10-17T21:46:18.485Z,72.49
2022-10-17T21:48:49.091Z,72.89
2022-10-17T21:51:17.468Z,72.68
2022-10-17T21:53:44.749Z,73.79
2022-10-17T21:56:21.423Z,73.21
2022-10-17T21:58:48.683Z,73.72
2022-10-17T22:01:19.156Z,73.58
2022-10-17T22:03:50.047Z,72.50
2022-10-17T22:09:15.749Z,72.37
2022-10-17T22:11:45.696Z,73.29
2022-10-17T22:14:16.303Z,73.28
2022-10-17T22:16:45.046Z,72.21
2022-10-17T22:19:13.324Z,71.91
2022-10-17T22:21:41.560Z,72.51
2022-10-17T22:24:13.914Z,72.21
2022-10-17T22:26:44.255Z,72.30
2022-10-17T22:29:12.006Z,71.79
2022-10-17T22:31:39.851Z,71.79
2022-10-17T22:34:07.301Z,72.62
2022-10-17T22:36:35.957Z,72.87
2022-10-17T22:39:03.208Z,72.66
2022-10-17T22:41:30.717Z,72.44
2022-10-17T22:43:58.919Z,73.49
2022-10-17T22:46:26.443Z,73.35
2022-10-17T22:48:54.388Z,73.08
2022-10-17T22:51:21.633Z,74.71
2022-10-17T22:53:49.032Z,73.28
2022-10-17T22:56:18.966Z,73.46
2022-10-17T22:58:46.722Z,73.11
2022-10-17T23:01:16.830Z,74.25
2022-10-17T23:03:43.688Z,74.15
2022-10-17T23:06:10.640Z,74.71
2022-10-17T23:08:37.471Z,73.96
2022-10-17T23:11:05.193Z,74.59
2022-10-17T23:13:32.374Z,74.06
2022-10-17T23:15:59.867Z,73.61
2022-10-17T23:20:57.729Z,73.02
2022-10-17T23:23:24.621Z,72.65
2022-10-17T23:25:51.802Z,72.89
2022-10-17T23:28:18.407Z,72.67
2022-10-17T23:30:45.531Z,72.55
2022-10-17T23:33:13.612Z,71.33
2022-10-17T23:35:41.021Z,73.16
2022-10-17T23:38:07.833Z,73.62
2022-10-17T23:40:35.576Z,73.93
2022-10-17T23:43:03.451Z,73.44
2022-10-17T23:45:34.727Z,73.30
2022-10-17T23:48:04.148Z,72.09
2022-10-17T23:50:30.709Z,71.52
2022-10-17T23:52:57.392Z,72.38
2022-10-17T23:55:24.368Z,71.79
2022-10-17T23:57:51.665Z,72.23
